sensor_id;sensor_type;location;lat;lon;timestamp;pressure;altitude;pressure_sealevel;temperature;humidity
25855;BME280;13680;49.936;11.344;2023-07-28T00:01:56;95933.88;;;18.86;93.88
25855;BME280;13680;49.936;11.344;2023-07-28T00:04:22;95930.63;;;18.73;94.87
25855;BME280;13680;49.936;11.344;2023-07-28T00:06:47;95935.41;;;18.87;93.74
25855;BME280;13680;49.936;11.344;2023-07-28T00:09:13;95926.84;;;18.85;94.03
25855;BME280;13680;49.936;11.344;2023-07-28T00:11:38;95930.03;;;18.90;93.68
25855;BME280;13680;49.936;11.344;2023-07-28T00:14:03;95933.88;;;18.89;93.94
25855;BME280;13680;49.936;11.344;2023-07-28T00:16:29;95930.84;;;18.91;93.63
25855;BME280;13680;49.936;11.344;2023-07-28T00:18:54;95933.47;;;18.87;93.87
25855;BME280;13680;49.936;11.344;2023-07-28T00:21:19;95930.84;;;18.91;93.45
25855;BME280;13680;49.936;11.344;2023-07-28T00:23:45;95934.16;;;18.77;93.81
25855;BME280;13680;49.936;11.344;2023-07-28T00:26:10;95933.88;;;18.86;93.31
25855;BME280;13680;49.936;11.344;2023-07-28T00:28:35;95942.53;;;18.61;95.43
25855;BME280;13680;49.936;11.344;2023-07-28T00:31:00;95936.88;;;18.77;93.79
25855;BME280;13680;49.936;11.344;2023-07-28T00:33:26;95925.59;;;18.78;93.96
25855;BME280;13680;49.936;11.344;2023-07-28T00:35:51;95919.78;;;18.80;94.39
25855;BME280;13680;49.936;11.344;2023-07-28T00:38:16;95918.19;;;18.75;94.69
25855;BME280;13680;49.936;11.344;2023-07-28T00:40:42;95908.16;;;18.83;94.22
25855;BME280;13680;49.936;11.344;2023-07-28T00:43:07;95911.28;;;18.85;94.38
25855;BME280;13680;49.936;11.344;2023-07-28T00:45:33;95913.59;;;18.83;94.13
25855;BME280;13680;49.936;11.344;2023-07-28T00:47:59;95903.97;;;18.93;93.56
25855;BME280;13680;49.936;11.344;2023-07-28T00:50:25;95893.34;;;18.84;93.77
25855;BME280;13680;49.936;11.344;2023-07-28T00:52:51;95902.63;;;18.76;94.18
25855;BME280;13680;49.936;11.344;2023-07-28T00:55:16;95907.31;;;18.75;93.96
25855;BME280;13680;49.936;11.344;2023-07-28T00:57:42;95896.00;;;18.73;94.38
25855;BME280;13680;49.936;11.344;2023-07-28T01:00:09;95894.50;;;18.79;94.07
25855;BME280;13680;49.936;11.344;2023-07-28T01:02:34;95898.94;;;18.57;94.96
25855;BME280;13680;49.936;11.344;2023-07-28T01:05:00;95901.25;;;18.55;96.11
25855;BME280;13680;49.936;11.344;2023-07-28T01:07:53;95891.47;;;18.51;95.72
25855;BME280;13680;49.936;11.344;2023-07-28T01:10:30;95895.47;;;18.60;96.08
25855;BME280;13680;49.936;11.344;2023-07-28T01:12:56;95897.72;;;18.55;95.91
25855;BME280;13680;49.936;11.344;2023-07-28T01:15:21;95906.50;;;18.37;96.88
25855;BME280;13680;49.936;11.344;2023-07-28T01:17:46;95900.09;;;18.22;98.62
25855;BME280;13680;49.936;11.344;2023-07-28T01:20:12;95903.97;;;18.21;98.39
25855;BME280;13680;49.936;11.344;2023-07-28T01:25:28;95903.88;;;18.48;96.38
25855;BME280;13680;49.936;11.344;2023-07-28T01:27:58;95918.59;;;18.43;96.49
25855;BME280;13680;49.936;11.344;2023-07-28T01:30:24;95911.25;;;18.44;96.81
25855;BME280;13680;49.936;11.344;2023-07-28T01:32:54;95911.44;;;18.28;97.75
25855;BME280;13680;49.936;11.344;2023-07-28T01:35:19;95914.28;;;18.39;97.14
25855;BME280;13680;49.936;11.344;2023-07-28T01:37:45;95911.53;;;18.35;96.70
25855;BME280;13680;49.936;11.344;2023-07-28T01:40:16;95905.47;;;18.49;96.19
25855;BME280;13680;49.936;11.344;2023-07-28T01:42:41;95907.31;;;18.41;97.25
25855;BME280;13680;49.936;11.344;2023-07-28T01:45:07;95920.84;;;18.34;97.43
25855;BME280;13680;49.936;11.344;2023-07-28T01:47:32;95913.81;;;18.29;97.17
25855;BME280;13680;49.936;11.344;2023-07-28T01:49:58;95915.13;;;18.43;95.98
25855;BME280;13680;49.936;11.344;2023-07-28T01:52:23;95909.09;;;17.96;100.00
25855;BME280;13680;49.936;11.344;2023-07-28T01:54:48;95913.34;;;18.24;99.17
25855;BME280;13680;49.936;11.344;2023-07-28T01:57:14;95911.63;;;18.12;99.79
25855;BME280;13680;49.936;11.344;2023-07-28T01:59:39;95911.41;;;17.94;100.00
25855;BME280;13680;49.936;11.344;2023-07-28T02:02:04;95922.56;;;18.15;99.94
25855;BME280;13680;49.936;11.344;2023-07-28T02:04:30;95917.66;;;18.28;98.01
25855;BME280;13680;49.936;11.344;2023-07-28T02:06:55;95912.09;;;18.18;99.18
25855;BME280;13680;49.936;11.344;2023-07-28T02:09:21;95924.63;;;17.95;100.00
25855;BME280;13680;49.936;11.344;2023-07-28T02:11:46;95915.06;;;18.05;100.00
25855;BME280;13680;49.936;11.344;2023-07-28T02:14:11;95921.06;;;18.22;99.21
25855;BME280;13680;49.936;11.344;2023-07-28T02:16:36;95921.22;;;18.32;98.25
25855;BME280;13680;49.936;11.344;2023-07-28T02:19:02;95922.75;;;18.30;98.43
25855;BME280;13680;49.936;11.344;2023-07-28T02:21:27;95923.19;;;18.36;98.18
25855;BME280;13680;49.936;11.344;2023-07-28T02:23:53;95921.31;;;18.43;97.77
25855;BME280;13680;49.936;11.344;2023-07-28T02:26:18;95912.84;;;18.48;96.63
25855;BME280;13680;49.936;11.344;2023-07-28T02:28:43;95928.72;;;18.43;96.49
25855;BME280;13680;49.936;11.344;2023-07-28T02:31:09;95925.34;;;18.53;95.80
25855;BME280;13680;49.936;11.344;2023-07-28T02:33:34;95926.13;;;18.54;96.36
25855;BME280;13680;49.936;11.344;2023-07-28T02:36:02;95922.97;;;18.18;98.06
25855;BME280;13680;49.936;11.344;2023-07-28T02:38:27;95925.78;;;18.25;98.13
25855;BME280;13680;49.936;11.344;2023-07-28T02:40:53;95929.50;;;18.43;96.86
25855;BME280;13680;49.936;11.344;2023-07-28T02:43:18;95924.31;;;18.31;97.97
25855;BME280;13680;49.936;11.344;2023-07-28T02:45:43;95926.88;;;18.20;98.24
25855;BME280;13680;49.936;11.344;2023-07-28T02:48:12;95927.75;;;18.28;98.57
25855;BME280;13680;49.936;11.344;2023-07-28T02:50:37;95925.66;;;18.48;97.18
25855;BME280;13680;49.936;11.344;2023-07-28T02:53:03;95931.88;;;18.45;97.09
25855;BME280;13680;49.936;11.344;2023-07-28T02:55:28;95938.13;;;18.49;96.90
25855;BME280;13680;49.936;11.344;2023-07-28T02:57:53;95929.59;;;18.51;96.00
25855;BME280;13680;49.936;11.344;2023-07-28T03:00:18;95920.75;;;18.61;95.93
25855;BME280;13680;49.936;11.344;2023-07-28T03:02:44;95927.06;;;18.69;95.04
25855;BME280;13680;49.936;11.344;2023-07-28T03:05:09;95925.72;;;18.52;95.92
25855;BME280;13680;49.936;11.344;2023-07-28T03:07:34;95918.84;;;18.65;95.46
25855;BME280;13680;49.936;11.344;2023-07-28T03:10:00;95918.50;;;18.70;94.73
25855;BME280;13680;49.936;11.344;2023-07-28T03:12:25;95921.28;;;18.74;94.87
25855;BME280;13680;49.936;11.344;2023-07-28T03:14:50;95929.88;;;18.76;94.44
25855;BME280;13680;49.936;11.344;2023-07-28T03:17:15;95927.56;;;18.78;94.74
25855;BME280;13680;49.936;11.344;2023-07-28T03:19:41;95927.91;;;18.76;94.67
25855;BME280;13680;49.936;11.344;2023-07-28T03:22:06;95925.66;;;18.82;94.76
25855;BME280;13680;49.936;11.344;2023-07-28T03:24:32;95934.59;;;18.83;94.68
25855;BME280;13680;49.936;11.344;2023-07-28T03:26:58;95928.41;;;18.86;94.53
25855;BME280;13680;49.936;11.344;2023-07-28T03:29:23;95926.09;;;18.88;94.58
25855;BME280;13680;49.936;11.344;2023-07-28T03:31:48;95923.81;;;18.90;94.51
25855;BME280;13680;49.936;11.344;2023-07-28T03:34:13;95922.28;;;18.92;94.18
25855;BME280;13680;49.936;11.344;2023-07-28T03:36:39;95924.63;;;18.94;94.19
25855;BME280;13680;49.936;11.344;2023-07-28T03:39:04;95926.19;;;18.95;93.75
25855;BME280;13680;49.936;11.344;2023-07-28T03:41:30;95927.72;;;18.92;93.67
25855;BME280;13680;49.936;11.344;2023-07-28T03:43:55;95924.63;;;18.94;93.52
25855;BME280;13680;49.936;11.344;2023-07-28T03:46:20;95928.50;;;18.93;93.44
25855;BME280;13680;49.936;11.344;2023-07-28T03:48:46;95930.03;;;18.90;93.31
25855;BME280;13680;49.936;11.344;2023-07-28T03:51:11;95929.09;;;18.75;94.52
25855;BME280;13680;49.936;11.344;2023-07-28T03:53:37;95933.00;;;18.78;95.39
25855;BME280;13680;49.936;11.344;2023-07-28T03:56:03;95928.44;;;18.89;94.18
25855;BME280;13680;49.936;11.344;2023-07-28T03:58:28;95931.97;;;18.90;93.96
25855;BME280;13680;49.936;11.344;2023-07-28T04:00:54;95924.06;;;18.81;94.32
25855;BME280;13680;49.936;11.344;2023-07-28T04:03:19;95934.59;;;18.83;94.50
25855;BME280;13680;49.936;11.344;2023-07-28T04:05:45;95932.66;;;18.83;94.85
25855;BME280;13680;49.936;11.344;2023-07-28T04:08:10;95933.16;;;18.92;94.08
25855;BME280;13680;49.936;11.344;2023-07-28T04:10:35;95934.72;;;18.90;94.45
25855;BME280;13680;49.936;11.344;2023-07-28T04:13:01;95942.38;;;18.80;94.56
25855;BME280;13680;49.936;11.344;2023-07-28T04:15:26;95941.53;;;18.76;95.20
25855;BME280;13680;49.936;11.344;2023-07-28T04:17:51;95940.34;;;18.74;95.87
25855;BME280;13680;49.936;11.344;2023-07-28T04:20:17;95945.25;;;18.61;96.78
25855;BME280;13680;49.936;11.344;2023-07-28T04:22:42;95932.13;;;18.70;95.62
25855;BME280;13680;49.936;11.344;2023-07-28T04:25:07;95934.78;;;18.63;95.96
25855;BME280;13680;49.936;11.344;2023-07-28T04:27:32;95933.97;;;18.59;97.01
25855;BME280;13680;49.936;11.344;2023-07-28T04:29:58;95931.41;;;18.73;96.33
25855;BME280;13680;49.936;11.344;2023-07-28T04:32:23;95945.44;;;18.79;95.73
25855;BME280;13680;49.936;11.344;2023-07-28T04:34:49;95943.00;;;18.70;96.13
25855;BME280;13680;49.936;11.344;2023-07-28T04:37:15;95936.16;;;18.84;95.38
25855;BME280;13680;49.936;11.344;2023-07-28T04:39:40;95942.75;;;18.83;94.85
25855;BME280;13680;49.936;11.344;2023-07-28T04:42:05;95940.09;;;18.86;95.18
25855;BME280;13680;49.936;11.344;2023-07-28T04:44:31;95931.53;;;18.88;94.91
25855;BME280;13680;49.936;11.344;2023-07-28T04:46:56;95937.44;;;18.90;94.90
25855;BME280;13680;49.936;11.344;2023-07-28T04:49:21;95935.47;;;18.90;94.80
25855;BME280;13680;49.936;11.344;2023-07-28T04:51:47;95938.06;;;18.79;94.78
25855;BME280;13680;49.936;11.344;2023-07-28T04:54:12;95946.13;;;18.69;96.00
25855;BME280;13680;49.936;11.344;2023-07-28T04:56:38;95948.13;;;18.72;96.23
25855;BME280;13680;49.936;11.344;2023-07-28T04:59:03;95953.44;;;18.61;97.11
25855;BME280;13680;49.936;11.344;2023-07-28T05:01:29;95945.44;;;18.75;95.97
25855;BME280;13680;49.936;11.344;2023-07-28T05:03:54;95941.94;;;18.78;95.41
25855;BME280;13680;49.936;11.344;2023-07-28T05:06:20;95942.38;;;18.80;95.11
25855;BME280;13680;49.936;11.344;2023-07-28T05:08:45;95945.19;;;18.54;97.97
25855;BME280;13680;49.936;11.344;2023-07-28T05:11:10;95939.91;;;18.68;96.43
25855;BME280;13680;49.936;11.344;2023-07-28T05:13:36;95944.59;;;18.71;96.42
25855;BME280;13680;49.936;11.344;2023-07-28T05:16:01;95952.75;;;18.71;95.62
25855;BME280;13680;49.936;11.344;2023-07-28T05:18:26;95941.56;;;18.80;96.17
25855;BME280;13680;49.936;11.344;2023-07-28T05:20:52;95947.78;;;18.77;96.98
25855;BME280;13680;49.936;11.344;2023-07-28T05:23:17;95948.94;;;18.76;96.50
25855;BME280;13680;49.936;11.344;2023-07-28T05:25:42;95949.75;;;18.80;95.87
25855;BME280;13680;49.936;11.344;2023-07-28T05:28:07;95953.28;;;18.80;96.14
25855;BME280;13680;49.936;11.344;2023-07-28T05:30:33;95952.09;;;18.81;96.09
25855;BME280;13680;49.936;11.344;2023-07-28T05:32:58;95959.09;;;18.83;96.59
25855;BME280;13680;49.936;11.344;2023-07-28T05:35:23;95947.56;;;18.93;95.86
25855;BME280;13680;49.936;11.344;2023-07-28T05:37:48;95957.13;;;18.79;96.18
25855;BME280;13680;49.936;11.344;2023-07-28T05:40:15;95961.53;;;18.54;98.88
25855;BME280;13680;49.936;11.344;2023-07-28T05:42:40;95966.28;;;18.60;98.67
25855;BME280;13680;49.936;11.344;2023-07-28T05:45:06;95969.53;;;18.73;97.75
25855;BME280;13680;49.936;11.344;2023-07-28T05:47:31;95969.84;;;18.68;98.60
25855;BME280;13680;49.936;11.344;2023-07-28T05:49:57;95973.88;;;18.81;97.96
25855;BME280;13680;49.936;11.344;2023-07-28T05:52:22;95968.97;;;18.94;97.25
25855;BME280;13680;49.936;11.344;2023-07-28T05:54:48;95971.41;;;19.00;96.83
25855;BME280;13680;49.936;11.344;2023-07-28T05:57:13;95971.88;;;19.09;96.23
25855;BME280;13680;49.936;11.344;2023-07-28T05:59:39;95979.31;;;19.16;95.90
25855;BME280;13680;49.936;11.344;2023-07-28T06:02:04;95967.66;;;19.19;95.37
25855;BME280;13680;49.936;11.344;2023-07-28T06:04:30;95980.22;;;19.27;95.20
25855;BME280;13680;49.936;11.344;2023-07-28T06:06:55;95977.06;;;19.25;94.62
25855;BME280;13680;49.936;11.344;2023-07-28T06:09:20;95973.94;;;19.23;94.20
25855;BME280;13680;49.936;11.344;2023-07-28T06:11:46;95975.09;;;19.22;94.23
25855;BME280;13680;49.936;11.344;2023-07-28T06:14:11;95976.25;;;19.21;94.44
25855;BME280;13680;49.936;11.344;2023-07-28T06:16:36;95978.50;;;19.11;95.22
25855;BME280;13680;49.936;11.344;2023-07-28T06:19:01;95982.94;;;19.27;94.24
25855;BME280;13680;49.936;11.344;2023-07-28T06:21:27;95975.09;;;19.22;93.96
25855;BME280;13680;49.936;11.344;2023-07-28T06:23:52;95985.59;;;19.20;95.11
25855;BME280;13680;49.936;11.344;2023-07-28T06:26:18;95986.44;;;19.24;95.04
25855;BME280;13680;49.936;11.344;2023-07-28T06:28:43;95980.97;;;19.24;95.29
25855;BME280;13680;49.936;11.344;2023-07-28T06:31:08;95984.91;;;19.30;94.60
25855;BME280;13680;49.936;11.344;2023-07-28T06:33:34;95987.75;;;19.41;94.56
25855;BME280;13680;49.936;11.344;2023-07-28T06:36:03;95995.88;;;19.37;93.99
25855;BME280;13680;49.936;11.344;2023-07-28T06:38:29;95988.03;;;19.32;94.34
25855;BME280;13680;49.936;11.344;2023-07-28T06:40:54;95998.66;;;19.41;93.84
25855;BME280;13680;49.936;11.344;2023-07-28T06:43:20;96003.75;;;19.46;93.93
25855;BME280;13680;49.936;11.344;2023-07-28T06:45:46;95999.06;;;19.46;93.39
25855;BME280;13680;49.936;11.344;2023-07-28T06:48:12;96008.94;;;19.58;93.06
25855;BME280;13680;49.936;11.344;2023-07-28T06:50:37;96009.28;;;19.57;93.94
25855;BME280;13680;49.936;11.344;2023-07-28T06:53:02;96000.41;;;19.22;94.92
25855;BME280;13680;49.936;11.344;2023-07-28T06:55:27;96003.75;;;19.46;94.18
25855;BME280;13680;49.936;11.344;2023-07-28T06:57:53;96009.78;;;19.25;94.68
25855;BME280;13680;49.936;11.344;2023-07-28T07:00:18;96010.13;;;19.20;95.58
25855;BME280;13680;49.936;11.344;2023-07-28T07:02:44;96015.09;;;19.10;95.46
25855;BME280;13680;49.936;11.344;2023-07-28T07:05:10;96018.03;;;19.32;94.66
25855;BME280;13680;49.936;11.344;2023-07-28T07:07:36;96017.03;;;19.51;94.07
25855;BME280;13680;49.936;11.344;2023-07-28T07:10:02;96007.63;;;19.45;94.08
25855;BME280;13680;49.936;11.344;2023-07-28T07:12:27;96018.53;;;19.45;94.12
25855;BME280;13680;49.936;11.344;2023-07-28T07:14:53;96023.56;;;19.39;94.69
25855;BME280;13680;49.936;11.344;2023-07-28T07:17:18;96020.84;;;19.43;94.91
25855;BME280;13680;49.936;11.344;2023-07-28T07:19:43;96021.19;;;19.34;94.84
25855;BME280;13680;49.936;11.344;2023-07-28T07:22:09;96018.81;;;19.33;94.66
25855;BME280;13680;49.936;11.344;2023-07-28T07:24:35;96023.16;;;19.37;94.31
25855;BME280;13680;49.936;11.344;2023-07-28T07:27:00;96027.81;;;18.99;97.46
25855;BME280;13680;49.936;11.344;2023-07-28T07:29:25;96014.19;;;19.40;94.89
25855;BME280;13680;49.936;11.344;2023-07-28T07:31:51;96024.34;;;19.40;95.01
25855;BME280;13680;49.936;11.344;2023-07-28T07:34:24;96027.03;;;19.36;95.38
25855;BME280;13680;49.936;11.344;2023-07-28T07:36:50;96041.19;;;19.53;95.26
25855;BME280;13680;49.936;11.344;2023-07-28T07:39:15;96030.75;;;19.58;94.52
25855;BME280;13680;49.936;11.344;2023-07-28T07:41:41;96033.88;;;19.60;93.91
25855;BME280;13680;49.936;11.344;2023-07-28T07:44:06;96037.16;;;19.81;93.42
25855;BME280;13680;49.936;11.344;2023-07-28T07:46:31;96047.19;;;19.69;92.68
25855;BME280;13680;49.936;11.344;2023-07-28T07:48:57;96053.06;;;19.71;92.47
25855;BME280;13680;49.936;11.344;2023-07-28T07:51:22;96044.44;;;19.66;92.97
25855;BME280;13680;49.936;11.344;2023-07-28T07:53:48;96053.09;;;19.75;92.61
25855;BME280;13680;49.936;11.344;2023-07-28T07:56:14;96054.53;;;19.61;93.65
25855;BME280;13680;49.936;11.344;2023-07-28T07:58:40;96065.00;;;19.56;95.23
25855;BME280;13680;49.936;11.344;2023-07-28T08:01:05;96061.63;;;19.73;94.51
25855;BME280;13680;49.936;11.344;2023-07-28T08:03:31;96064.19;;;19.93;93.35
25855;BME280;13680;49.936;11.344;2023-07-28T08:06:01;96073.53;;;19.92;92.16
25855;BME280;13680;49.936;11.344;2023-07-28T08:08:26;96071.03;;;19.79;93.84
25855;BME280;13680;49.936;11.344;2023-07-28T08:10:52;96067.16;;;19.81;94.44
25855;BME280;13680;49.936;11.344;2023-07-28T08:13:17;96070.81;;;19.92;94.11
25855;BME280;13680;49.936;11.344;2023-07-28T08:15:43;96069.66;;;19.93;93.92
25855;BME280;13680;49.936;11.344;2023-07-28T08:18:11;96072.03;;;19.98;92.40
25855;BME280;13680;49.936;11.344;2023-07-28T08:20:36;96075.06;;;19.89;93.23
25855;BME280;13680;49.936;11.344;2023-07-28T08:23:01;96077.97;;;19.66;95.11
25855;BME280;13680;49.936;11.344;2023-07-28T08:25:27;96077.63;;;19.71;93.45
25855;BME280;13680;49.936;11.344;2023-07-28T08:27:52;96087.41;;;19.38;97.26
25855;BME280;13680;49.936;11.344;2023-07-28T08:30:18;96081.78;;;19.61;94.20
25855;BME280;13680;49.936;11.344;2023-07-28T08:32:43;96084.22;;;19.70;93.54
25855;BME280;13680;49.936;11.344;2023-07-28T08:35:10;96091.81;;;19.50;94.36
25855;BME280;13680;49.936;11.344;2023-07-28T08:37:35;96091.91;;;19.57;95.42
25855;BME280;13680;49.936;11.344;2023-07-28T08:40:01;96098.72;;;19.40;95.61
25855;BME280;13680;49.936;11.344;2023-07-28T08:42:29;96094.59;;;19.54;96.01
25855;BME280;13680;49.936;11.344;2023-07-28T08:44:54;96096.63;;;19.64;94.47
25855;BME280;13680;49.936;11.344;2023-07-28T08:47:20;96091.03;;;19.87;92.85
25855;BME280;13680;49.936;11.344;2023-07-28T08:49:46;96097.72;;;19.56;94.54
25855;BME280;13680;49.936;11.344;2023-07-28T08:52:16;96093.28;;;19.82;93.75
25855;BME280;13680;49.936;11.344;2023-07-28T08:54:42;96094.94;;;19.90;92.49
25855;BME280;13680;49.936;11.344;2023-07-28T08:57:09;96097.63;;;19.86;92.27
25855;BME280;13680;49.936;11.344;2023-07-28T08:59:36;96102.38;;;19.93;92.80
25855;BME280;13680;49.936;11.344;2023-07-28T09:02:04;96097.84;;;20.11;92.12
25855;BME280;13680;49.936;11.344;2023-07-28T09:04:31;96107.78;;;19.86;92.50
25855;BME280;13680;49.936;11.344;2023-07-28T09:06:56;96102.13;;;20.09;92.81
25855;BME280;13680;49.936;11.344;2023-07-28T09:09:22;96106.69;;;19.94;92.40
25855;BME280;13680;49.936;11.344;2023-07-28T09:11:50;96106.75;;;20.05;91.35
25855;BME280;13680;49.936;11.344;2023-07-28T09:14:18;96114.03;;;19.90;93.61
25855;BME280;13680;49.936;11.344;2023-07-28T09:16:44;96111.00;;;19.99;93.48
25855;BME280;13680;49.936;11.344;2023-07-28T09:19:10;96114.16;;;20.01;94.13
25855;BME280;13680;49.936;11.344;2023-07-28T09:21:37;96113.84;;;20.13;92.44
25855;BME280;13680;49.936;11.344;2023-07-28T09:24:07;96112.50;;;19.92;93.43
25855;BME280;13680;49.936;11.344;2023-07-28T09:26:47;96111.66;;;20.33;92.34
25855;BME280;13680;49.936;11.344;2023-07-28T09:29:14;96112.06;;;20.35;91.36
25855;BME280;13680;49.936;11.344;2023-07-28T09:31:40;96121.06;;;20.39;91.29
25855;BME280;13680;49.936;11.344;2023-07-28T09:34:07;96117.97;;;20.44;91.42
25855;BME280;13680;49.936;11.344;2023-07-28T09:36:34;96120.84;;;20.66;90.39
25855;BME280;13680;49.936;11.344;2023-07-28T09:39:01;96113.78;;;20.58;92.12
25855;BME280;13680;49.936;11.344;2023-07-28T09:41:29;96118.34;;;21.09;91.62
25855;BME280;13680;49.936;11.344;2023-07-28T09:43:55;96113.03;;;21.53;90.10
25855;BME280;13680;49.936;11.344;2023-07-28T09:46:22;96109.59;;;21.81;87.88
25855;BME280;13680;49.936;11.344;2023-07-28T09:48:52;96110.00;;;21.98;84.52
25855;BME280;13680;49.936;11.344;2023-07-28T09:51:21;96121.72;;;22.05;83.31
25855;BME280;13680;49.936;11.344;2023-07-28T09:54:02;96112.31;;;21.78;82.69
25855;BME280;13680;49.936;11.344;2023-07-28T09:56:29;96105.69;;;21.86;83.14
25855;BME280;13680;49.936;11.344;2023-07-28T09:58:56;96110.38;;;21.71;83.18
25855;BME280;13680;49.936;11.344;2023-07-28T10:01:23;96113.94;;;21.93;82.72
25855;BME280;13680;49.936;11.344;2023-07-28T10:03:49;96108.81;;;21.95;82.27
25855;BME280;13680;49.936;11.344;2023-07-28T10:06:15;96112.75;;;21.87;82.46
25855;BME280;13680;49.936;11.344;2023-07-28T10:08:44;96109.63;;;21.92;83.01
25855;BME280;13680;49.936;11.344;2023-07-28T10:11:14;96113.09;;;21.71;83.84
25855;BME280;13680;49.936;11.344;2023-07-28T10:13:41;96115.84;;;21.78;84.39
25855;BME280;13680;49.936;11.344;2023-07-28T10:16:11;96119.28;;;21.46;83.43
25855;BME280;13680;49.936;11.344;2023-07-28T10:18:39;96121.97;;;21.35;84.99
25855;BME280;13680;49.936;11.344;2023-07-28T10:21:08;96120.44;;;21.45;85.99
25855;BME280;13680;49.936;11.344;2023-07-28T10:23:34;96130.66;;;21.59;87.32
25855;BME280;13680;49.936;11.344;2023-07-28T10:26:02;96139.94;;;21.36;86.18
25855;BME280;13680;49.936;11.344;2023-07-28T10:28:38;96135.19;;;21.12;88.29
25855;BME280;13680;49.936;11.344;2023-07-28T10:31:07;96128.16;;;21.14;86.54
25855;BME280;13680;49.936;11.344;2023-07-28T10:33:35;96137.72;;;21.64;86.55
25855;BME280;13680;49.936;11.344;2023-07-28T10:36:17;96130.34;;;21.97;84.17
25855;BME280;13680;49.936;11.344;2023-07-28T10:38:43;96131.94;;;22.30;82.19
25855;BME280;13680;49.936;11.344;2023-07-28T10:41:11;96138.59;;;22.36;81.22
25855;BME280;13680;49.936;11.344;2023-07-28T10:43:38;96135.44;;;22.60;81.67
25855;BME280;13680;49.936;11.344;2023-07-28T10:46:04;96150.28;;;22.04;82.20
25855;BME280;13680;49.936;11.344;2023-07-28T10:48:31;96141.31;;;22.29;79.47
25855;BME280;13680;49.936;11.344;2023-07-28T10:50:56;96143.63;;;21.77;80.22
25855;BME280;13680;49.936;11.344;2023-07-28T10:53:21;96145.56;;;21.94;80.83
25855;BME280;13680;49.936;11.344;2023-07-28T10:55:47;96140.09;;;21.94;81.21
25855;BME280;13680;49.936;11.344;2023-07-28T10:58:12;96147.16;;;22.17;81.15
25855;BME280;13680;49.936;11.344;2023-07-28T11:00:38;96156.56;;;22.27;80.69
25855;BME280;13680;49.936;11.344;2023-07-28T11:03:03;96145.59;;;22.74;77.60
25855;BME280;13680;49.936;11.344;2023-07-28T11:05:30;96141.59;;;23.07;76.92
25855;BME280;13680;49.936;11.344;2023-07-28T11:07:57;96143.09;;;23.33;74.41
25855;BME280;13680;49.936;11.344;2023-07-28T11:10:23;96150.50;;;23.44;73.42
25855;BME280;13680;49.936;11.344;2023-07-28T11:12:50;96143.38;;;23.57;73.11
25855;BME280;13680;49.936;11.344;2023-07-28T11:15:16;96146.34;;;22.88;74.27
25855;BME280;13680;49.936;11.344;2023-07-28T11:17:49;96144.75;;;22.98;73.88
25855;BME280;13680;49.936;11.344;2023-07-28T11:20:22;96143.53;;;23.14;72.22
25855;BME280;13680;49.936;11.344;2023-07-28T11:22:59;96141.63;;;23.00;74.84
25855;BME280;13680;49.936;11.344;2023-07-28T11:25:27;96140.03;;;23.10;73.35
25855;BME280;13680;49.936;11.344;2023-07-28T11:27:53;96147.59;;;22.59;75.98
25855;BME280;13680;49.936;11.344;2023-07-28T11:30:20;96153.78;;;22.88;73.49
25855;BME280;13680;49.936;11.344;2023-07-28T11:32:47;96155.25;;;23.36;73.27
25855;BME280;13680;49.936;11.344;2023-07-28T11:35:13;96150.84;;;23.57;72.80
25855;BME280;13680;49.936;11.344;2023-07-28T11:37:40;96147.44;;;24.01;71.66
25855;BME280;13680;49.936;11.344;2023-07-28T11:40:08;96144.63;;;24.12;70.55
25855;BME280;13680;49.936;11.344;2023-07-28T11:42:40;96137.38;;;24.82;69.37
25855;BME280;13680;49.936;11.344;2023-07-28T11:45:07;96140.75;;;25.31;68.09
25855;BME280;13680;49.936;11.344;2023-07-28T11:47:33;96135.63;;;24.95;69.44
25855;BME280;13680;49.936;11.344;2023-07-28T11:49:58;96136.72;;;25.40;67.33
25855;BME280;13680;49.936;11.344;2023-07-28T11:52:36;96141.91;;;25.65;64.92
25855;BME280;13680;49.936;11.344;2023-07-28T11:55:02;96140.09;;;25.82;63.00
25855;BME280;13680;49.936;11.344;2023-07-28T11:57:29;96137.56;;;25.33;63.22
25855;BME280;13680;49.936;11.344;2023-07-28T11:59:59;96143.81;;;25.03;65.09
25855;BME280;13680;49.936;11.344;2023-07-28T12:02:26;96138.81;;;24.94;64.98
25855;BME280;13680;49.936;11.344;2023-07-28T12:04:52;96148.31;;;24.89;64.47
25855;BME280;13680;49.936;11.344;2023-07-28T12:07:20;96145.78;;;25.40;64.99
25855;BME280;13680;49.936;11.344;2023-07-28T12:09:52;96131.91;;;26.06;64.97
25855;BME280;13680;49.936;11.344;2023-07-28T12:12:22;96142.84;;;26.60;59.92
25855;BME280;13680;49.936;11.344;2023-07-28T12:14:49;96143.72;;;27.01;57.30
25855;BME280;13680;49.936;11.344;2023-07-28T12:17:23;96141.09;;;26.94;57.14
25855;BME280;13680;49.936;11.344;2023-07-28T12:22:28;96141.22;;;28.04;58.75
25855;BME280;13680;49.936;11.344;2023-07-28T12:24:54;96125.75;;;27.33;54.05
25855;BME280;13680;49.936;11.344;2023-07-28T12:27:20;96128.41;;;27.93;52.77
25855;BME280;13680;49.936;11.344;2023-07-28T12:29:49;96123.25;;;27.59;52.66
25855;BME280;13680;49.936;11.344;2023-07-28T12:32:14;96128.84;;;27.35;54.76
25855;BME280;13680;49.936;11.344;2023-07-28T12:34:39;96114.69;;;27.13;53.33
25855;BME280;13680;49.936;11.344;2023-07-28T12:37:06;96128.94;;;26.68;55.72
25855;BME280;13680;49.936;11.344;2023-07-28T12:39:31;96117.28;;;27.60;53.27
25855;BME280;13680;49.936;11.344;2023-07-28T12:41:57;96127.38;;;27.10;53.44
25855;BME280;13680;49.936;11.344;2023-07-28T12:44:22;96125.75;;;27.33;52.66
25855;BME280;13680;49.936;11.344;2023-07-28T12:46:48;96123.13;;;27.83;52.14
25855;BME280;13680;49.936;11.344;2023-07-28T12:49:13;96128.19;;;28.04;49.39
25855;BME280;13680;49.936;11.344;2023-07-28T12:51:40;96133.56;;;27.75;51.37